createdAt,value
2023-05-08T00:02:05.478Z,18.30
2023-05-08T00:04:33.125Z,20.43
2023-05-08T00:07:01.452Z,20.30
2023-05-08T00:09:29.112Z,20.23
2023-05-08T00:11:56.774Z,18.17
2023-05-08T00:14:24.325Z,20.77
2023-05-08T00:16:52.211Z,21.80
2023-05-08T00:19:19.935Z,20.30
2023-05-08T00:21:47.587Z,20.87
2023-05-08T00:24:15.198Z,20.57
2023-05-08T00:26:44.434Z,21.47
2023-05-08T00:29:12.432Z,20.60
2023-05-08T00:31:40.087Z,22.70
2023-05-08T00:34:07.749Z,20.00
2023-05-08T00:36:35.377Z,21.50
2023-05-08T00:39:03.537Z,20.63
2023-05-08T00:41:31.296Z,22.13
2023-05-08T00:43:59.459Z,22.30
2023-05-08T00:46:27.599Z,21.50
2023-05-08T00:48:55.717Z,24.63
2023-05-08T00:51:24.778Z,22.07
2023-05-08T00:53:52.772Z,22.93
2023-05-08T00:56:23.570Z,20.77
2023-05-08T00:58:52.432Z,21.50
2023-05-08T01:01:20.217Z,22.90
2023-05-08T01:03:48.466Z,21.90
2023-05-08T01:06:16.424Z,22.43
2023-05-08T01:08:47.110Z,22.07
2023-05-08T01:12:03.709Z,21.10
2023-05-08T01:15:14.420Z,21.80
2023-05-08T01:17:53.265Z,19.77
2023-05-08T01:20:52.263Z,21.80
2023-05-08T01:24:25.561Z,23.17
2023-05-08T01:27:35.591Z,23.77
2023-05-08T01:30:40.507Z,20.97
2023-05-08T01:33:49.968Z,23.63
2023-05-08T01:36:41.780Z,21.67
2023-05-08T01:39:43.582Z,23.60
2023-05-08T01:42:48.580Z,20.43
2023-05-08T01:45:40.518Z,23.10
2023-05-08T01:48:43.485Z,21.37
2023-05-08T01:51:23.751Z,22.20
2023-05-08T01:54:10.372Z,22.77
2023-05-08T01:56:42.790Z,23.63
2023-05-08T01:59:19.076Z,24.07
2023-05-08T02:01:51.456Z,20.40
2023-05-08T02:04:22.200Z,23.77
2023-05-08T02:06:53.674Z,28.10
2023-05-08T02:09:25.520Z,22.07
2023-05-08T02:11:56.664Z,22.43
2023-05-08T02:14:28.241Z,23.27
2023-05-08T02:17:01.930Z,23.70
2023-05-08T02:19:36.823Z,24.47
2023-05-08T02:22:10.493Z,23.83
2023-05-08T02:24:40.788Z,26.70
2023-05-08T02:27:12.413Z,24.30
2023-05-08T02:29:42.203Z,29.27
2023-05-08T02:32:12.293Z,22.77
2023-05-08T02:34:51.163Z,24.33
2023-05-08T02:37:30.692Z,21.40
2023-05-08T02:39:59.934Z,22.03
2023-05-08T02:42:27.902Z,22.33
2023-05-08T02:44:55.647Z,29.50
2023-05-08T02:48:01.417Z,24.20
2023-05-08T02:51:19.648Z,22.77
2023-05-08T02:54:03.015Z,20.33
2023-05-08T02:57:09.490Z,24.23
2023-05-08T02:59:51.971Z,22.53
2023-05-08T03:03:05.404Z,24.47
2023-05-08T03:05:38.672Z,23.50
2023-05-08T03:08:18.727Z,24.70
2023-05-08T03:10:54.018Z,21.90
2023-05-08T03:13:22.116Z,22.50
2023-05-08T03:16:04.635Z,22.63
2023-05-08T03:18:49.744Z,23.13
2023-05-08T03:21:24.454Z,22.13
2023-05-08T03:23:57.548Z,22.37
2023-05-08T03:26:26.596Z,22.60
2023-05-08T03:28:56.935Z,22.50
2023-05-08T03:31:34.522Z,20.93
2023-05-08T03:34:05.111Z,22.03
2023-05-08T03:36:33.255Z,22.60
2023-05-08T03:39:03.348Z,22.87
2023-05-08T03:41:32.279Z,24.83
2023-05-08T03:44:03.443Z,25.33
2023-05-08T03:46:35.873Z,25.07
2023-05-08T03:49:09.104Z,26.93
2023-05-08T03:51:40.523Z,22.73
2023-05-08T03:54:08.816Z,22.57
2023-05-08T03:56:36.784Z,23.17
2023-05-08T03:59:29.300Z,25.40
2023-05-08T04:02:56.818Z,25.67
2023-05-08T04:05:50.300Z,27.17
2023-05-08T04:08:31.690Z,23.37
2023-05-08T04:11:31.729Z,24.47
2023-05-08T04:14:08.516Z,26.47
2023-05-08T04:16:51.564Z,27.40
2023-05-08T04:19:28.954Z,27.40
2023-05-08T04:22:08.558Z,27.20
2023-05-08T04:24:48.281Z,25.63
2023-05-08T04:27:17.893Z,32.30
2023-05-08T04:29:45.749Z,28.37
2023-05-08T04:32:14.914Z,26.07
2023-05-08T04:34:43.121Z,26.53
2023-05-08T04:37:33.843Z,25.40
2023-05-08T04:40:07.447Z,25.07
2023-05-08T04:42:36.807Z,24.60
2023-05-08T04:45:07.065Z,23.07
2023-05-08T04:47:35.702Z,23.77
2023-05-08T04:50:03.532Z,26.30
2023-05-08T04:52:33.110Z,24.17
2023-05-08T04:55:00.799Z,23.37
2023-05-08T04:57:28.842Z,23.40
2023-05-08T04:59:56.628Z,22.63
2023-05-08T05:02:27.177Z,24.70
2023-05-08T05:04:58.825Z,24.00
2023-05-08T05:07:27.135Z,21.47
2023-05-08T05:09:55.451Z,23.30
2023-05-08T05:12:23.824Z,22.13
2023-05-08T05:14:51.431Z,21.17
2023-05-08T05:17:19.252Z,21.90
2023-05-08T05:19:47.839Z,23.53
2023-05-08T05:22:15.547Z,24.50
2023-05-08T05:24:43.125Z,22.30
2023-05-08T05:27:10.765Z,23.63
2023-05-08T05:29:38.933Z,21.10
2023-05-08T05:32:07.615Z,22.63
2023-05-08T05:34:35.277Z,22.70
2023-05-08T05:37:03.014Z,21.83
2023-05-08T05:39:30.715Z,23.67
2023-05-08T05:41:59.106Z,26.77
2023-05-08T05:44:26.704Z,22.63
2023-05-08T05:46:55.619Z,21.33
2023-05-08T05:49:23.427Z,24.67
2023-05-08T05:51:51.286Z,21.73
2023-05-08T05:54:19.053Z,25.00
2023-05-08T05:56:46.825Z,23.00
2023-05-08T05:59:14.527Z,25.10
2023-05-08T06:01:42.675Z,22.63
2023-05-08T06:04:10.399Z,21.43
2023-05-08T06:06:39.979Z,24.93
2023-05-08T06:09:07.680Z,22.63
2023-05-08T06:11:35.205Z,22.53
2023-05-08T06:14:03.500Z,22.17
2023-05-08T06:16:32.324Z,22.60
2023-05-08T06:19:00.614Z,20.90
2023-05-08T06:21:28.735Z,21.40
2023-05-08T06:23:56.294Z,24.57
2023-05-08T06:26:23.905Z,22.47
2023-05-08T06:28:52.135Z,22.20
2023-05-08T06:31:19.833Z,21.83
2023-05-08T06:33:48.036Z,20.70
2023-05-08T06:36:15.765Z,23.43
2023-05-08T06:38:43.412Z,21.17
2023-05-08T06:41:10.988Z,24.00
2023-05-08T06:43:38.820Z,21.23
2023-05-08T06:46:06.589Z,19.50
2023-05-08T06:48:34.309Z,24.07
2023-05-08T06:51:02.730Z,24.87
2023-05-08T06:53:31.081Z,27.43
2023-05-08T06:55:59.174Z,21.83
2023-05-08T06:58:26.895Z,20.63
2023-05-08T07:00:54.471Z,25.17
2023-05-08T07:03:22.092Z,24.20
2023-05-08T07:05:49.654Z,22.90
2023-05-08T07:08:17.863Z,21.30
2023-05-08T07:10:45.834Z,27.33
2023-05-08T07:13:13.781Z,25.40
2023-05-08T07:15:41.561Z,27.40
2023-05-08T07:18:09.280Z,25.27
2023-05-08T07:20:37.019Z,24.87
2023-05-08T07:23:04.802Z,22.83
2023-05-08T07:25:32.416Z,21.90
2023-05-08T07:28:01.267Z,20.87
2023-05-08T07:30:29.283Z,19.53
2023-05-08T07:32:57.249Z,21.63
2023-05-08T07:35:25.032Z,21.60
2023-05-08T07:37:52.826Z,23.87
2023-05-08T07:40:20.538Z,20.53
2023-05-08T07:42:48.466Z,17.20
2023-05-08T07:45:16.423Z,18.90
2023-05-08T07:47:57.500Z,23.40
2023-05-08T07:50:27.333Z,19.23
2023-05-08T07:52:55.007Z,21.70
2023-05-08T07:55:22.807Z,17.60
2023-05-08T07:57:50.414Z,16.63
2023-05-08T08:00:18.573Z,15.70
2023-05-08T08:02:46.823Z,15.87
2023-05-08T08:05:14.801Z,16.37
2023-05-08T08:07:43.779Z,13.03
2023-05-08T08:10:11.725Z,15.73
2023-05-08T08:12:40.017Z,15.20
2023-05-08T08:15:08.956Z,15.03
2023-05-08T08:17:36.725Z,16.23
2023-05-08T08:20:05.682Z,15.40
2023-05-08T08:22:33.413Z,14.03
2023-05-08T08:25:01.715Z,21.47
2023-05-08T08:27:29.862Z,13.13
2023-05-08T08:30:12.960Z,16.03
2023-05-08T08:32:44.585Z,13.23
2023-05-08T08:35:13.525Z,11.80
2023-05-08T08:37:41.511Z,10.97
2023-05-08T08:40:10.053Z,10.47
2023-05-08T08:42:37.995Z,8.47
2023-05-08T08:45:07.118Z,5.37
2023-05-08T08:47:41.433Z,6.93
2023-05-08T08:50:14.527Z,7.77
2023-05-08T08:53:17.783Z,5.30
2023-05-08T08:55:52.553Z,7.97
2023-05-08T08:58:47.956Z,7.50
2023-05-08T09:01:20.739Z,5.37
2023-05-08T09:03:50.036Z,5.60
2023-05-08T09:06:19.449Z,6.33
2023-05-08T09:08:48.586Z,6.60
2023-05-08T09:11:16.258Z,7.30
2023-05-08T09:13:44.420Z,8.03
2023-05-08T09:16:12.099Z,8.37
2023-05-08T09:18:39.787Z,6.30
2023-05-08T09:21:07.835Z,7.83
2023-05-08T09:24:04.893Z,7.00
2023-05-08T09:26:51.072Z,8.70
2023-05-08T09:29:23.011Z,10.63
2023-05-08T09:31:53.354Z,5.67
2023-05-08T09:34:33.295Z,7.10
2023-05-08T09:37:09.694Z,7.80
2023-05-08T09:39:41.410Z,5.30
2023-05-08T09:42:09.748Z,6.30
2023-05-08T09:44:54.203Z,5.60
2023-05-08T09:47:25.947Z,6.43
2023-05-08T09:50:06.776Z,10.13
2023-05-08T09:52:38.752Z,6.87
2023-05-08T09:55:10.873Z,6.20
2023-05-08T09:57:56.628Z,6.40
2023-05-08T10:00:30.112Z,7.00
2023-05-08T10:03:04.412Z,9.90
2023-05-08T10:05:36.719Z,8.53
2023-05-08T10:08:23.835Z,9.73
2023-05-08T10:10:51.877Z,9.93
2023-05-08T10:13:19.595Z,8.07
2023-05-08T10:15:56.939Z,5.20
2023-05-08T10:18:33.031Z,6.03
2023-05-08T10:21:07.210Z,7.47
2023-05-08T10:23:37.189Z,5.73
2023-05-08T10:26:18.535Z,5.50
2023-05-08T10:29:08.962Z,5.67
2023-05-08T10:31:44.058Z,5.40
2023-05-08T10:34:22.517Z,4.60
2023-05-08T10:36:54.213Z,3.97
2023-05-08T10:39:25.151Z,6.17
2023-05-08T10:41:53.435Z,6.37
2023-05-08T10:44:21.764Z,4.90
2023-05-08T10:48:18.341Z,7.33
2023-05-08T10:51:18.845Z,8.83
2023-05-08T10:54:51.773Z,5.13
2023-05-08T10:57:20.225Z,5.13
2023-05-08T10:59:48.372Z,4.40
2023-05-08T11:02:16.775Z,3.60
2023-05-08T11:04:44.615Z,3.50
2023-05-08T11:07:12.497Z,3.37
2023-05-08T11:09:43.261Z,3.77
2023-05-08T11:12:28.065Z,3.67
2023-05-08T11:15:07.324Z,3.90
2023-05-08T11:17:35.244Z,2.90
2023-05-08T11:20:08.716Z,3.27
2023-05-08T11:22:48.197Z,3.80
2023-05-08T11:25:16.175Z,3.00
2023-05-08T11:27:49.694Z,3.60
2023-05-08T11:30:39.526Z,4.60
2023-05-08T11:33:07.295Z,4.53
2023-05-08T11:36:18.489Z,2.97
2023-05-08T11:39:16.078Z,7.23
2023-05-08T11:41:43.949Z,3.70
2023-05-08T11:44:21.117Z,2.90
2023-05-08T11:46:53.969Z,14.10
2023-05-08T11:49:29.576Z,5.73
2023-05-08T11:52:02.292Z,4.80
2023-05-08T11:54:32.016Z,3.80
2023-05-08T11:56:59.964Z,3.70
2023-05-08T11:59:27.562Z,4.23
2023-05-08T12:04:26.010Z,6.40
2023-05-08T12:06:59.023Z,6.07
2023-05-08T12:09:27.347Z,5.73
2023-05-08T12:11:58.627Z,3.93
2023-05-08T12:14:26.325Z,4.70
2023-05-08T12:16:54.612Z,5.97
2023-05-08T12:19:23.005Z,4.33
2023-05-08T12:21:51.583Z,4.40
2023-05-08T12:24:23.446Z,5.70
2023-05-08T12:26:57.925Z,5.00
2023-05-08T12:29:28.412Z,4.30
2023-05-08T12:31:56.638Z,3.30
2023-05-08T12:34:25.007Z,3.40
2023-05-08T12:37:04.890Z,2.73
2023-05-08T12:39:37.864Z,4.60
2023-05-08T12:42:05.950Z,2.97
2023-05-08T12:44:33.584Z,3.40
2023-05-08T12:47:01.403Z,3.70
2023-05-08T12:49:32.712Z,4.87
2023-05-08T12:52:13.278Z,6.43
2023-05-08T12:54:49.493Z,2.87
2023-05-08T12:57:21.382Z,4.77
2023-05-08T12:59:49.152Z,3.83
2023-05-08T13:02:24.094Z,4.30
2023-05-08T13:04:56.704Z,3.17
2023-05-08T13:07:24.713Z,3.90
2023-05-08T13:10:04.975Z,4.30
2023-05-08T13:12:34.267Z,3.80
2023-05-08T13:15:04.825Z,3.87
2023-05-08T13:17:32.760Z,4.10
2023-05-08T13:20:01.177Z,3.63
2023-05-08T13:22:29.876Z,4.50
2023-05-08T13:24:57.500Z,3.50
2023-05-08T13:27:25.317Z,7.00
2023-05-08T13:29:52.914Z,2.90
2023-05-08T13:32:20.960Z,3.77
2023-05-08T13:34:51.160Z,3.90
2023-05-08T13:37:20.844Z,3.13
2023-05-08T13:39:49.133Z,3.00
2023-05-08T13:42:17.061Z,4.20
2023-05-08T13:44:44.711Z,4.37
2023-05-08T13:47:12.473Z,4.33
2023-05-08T13:49:40.129Z,3.33
2023-05-08T13:52:07.808Z,5.10
2023-05-08T13:54:36.190Z,4.00
2023-05-08T13:57:04.285Z,5.27
2023-05-08T13:59:32.689Z,4.50
2023-05-08T14:02:01.294Z,3.10
2023-05-08T14:04:29.125Z,5.10
2023-05-08T14:06:57.305Z,4.03
2023-05-08T14:09:25.569Z,4.00
2023-05-08T14:11:53.343Z,4.43
2023-05-08T14:14:21.080Z,3.90
2023-05-08T14:16:51.024Z,3.47
2023-05-08T14:19:19.086Z,4.20
2023-05-08T14:21:46.808Z,4.87
2023-05-08T14:24:14.515Z,4.10
2023-05-08T14:26:44.890Z,3.27
2023-05-08T14:29:13.294Z,4.17
2023-05-08T14:31:40.995Z,3.80
2023-05-08T14:34:09.040Z,4.73
2023-05-08T14:36:36.794Z,4.67
2023-05-08T14:39:05.327Z,4.20
2023-05-08T14:41:33.058Z,4.90
2023-05-08T14:44:01.318Z,4.70
2023-05-08T14:46:30.533Z,4.53
2023-05-08T14:48:58.601Z,5.97
2023-05-08T14:51:26.800Z,3.90
2023-05-08T14:53:54.875Z,4.10
2023-05-08T14:56:26.131Z,9.27
2023-05-08T14:58:55.546Z,5.07
2023-05-08T15:01:23.334Z,4.10
2023-05-08T15:03:53.558Z,4.70
2023-05-08T15:06:25.460Z,5.20
2023-05-08T15:08:53.753Z,8.57
2023-05-08T15:13:51.819Z,5.80
2023-05-08T15:16:19.527Z,6.60
2023-05-08T15:18:47.456Z,5.30
2023-05-08T15:21:15.137Z,4.97
2023-05-08T15:23:42.750Z,5.00
2023-05-08T15:26:10.736Z,4.77
2023-05-08T15:28:41.389Z,3.90
2023-05-08T15:31:09.026Z,3.90
2023-05-08T15:33:36.802Z,3.97
2023-05-08T15:36:05.088Z,4.20
2023-05-08T15:38:32.749Z,4.20
2023-05-08T15:41:00.313Z,4.37
2023-05-08T15:43:27.991Z,4.20
2023-05-08T15:45:55.721Z,4.10
2023-05-08T15:48:23.652Z,4.63
2023-05-08T15:50:51.343Z,4.83
2023-05-08T15:53:18.921Z,4.30
2023-05-08T15:55:46.551Z,6.57
2023-05-08T15:58:14.444Z,3.90
2023-05-08T16:00:45.139Z,4.33
2023-05-08T16:03:13.148Z,5.23
2023-05-08T16:05:40.879Z,5.50
2023-05-08T16:08:12.445Z,5.60
2023-05-08T16:10:42.120Z,5.10
2023-05-08T16:13:10.766Z,5.90
2023-05-08T16:15:38.757Z,5.70
2023-05-08T16:18:07.317Z,3.63
2023-05-08T16:20:36.060Z,4.20
2023-05-08T16:23:04.208Z,6.17
2023-05-08T16:25:32.455Z,4.90
2023-05-08T16:28:00.164Z,4.70
2023-05-08T16:30:28.227Z,4.60
2023-05-08T16:32:56.056Z,6.03
2023-05-08T16:35:26.209Z,7.07
2023-05-08T16:37:56.763Z,5.30
2023-05-08T16:40:24.429Z,4.87
2023-05-08T16:42:52.225Z,4.50
2023-05-08T16:45:19.925Z,5.43
2023-05-08T16:47:47.687Z,6.10
2023-05-08T16:50:16.150Z,5.10
2023-05-08T16:52:43.793Z,4.50
2023-05-08T16:55:11.985Z,7.20
2023-05-08T16:57:39.829Z,4.87
2023-05-08T17:00:08.960Z,4.53
2023-05-08T17:02:36.861Z,5.53
2023-05-08T17:05:05.509Z,4.60
2023-05-08T17:07:33.240Z,5.60
2023-05-08T17:10:01.006Z,7.83
2023-05-08T17:12:28.570Z,5.00
2023-05-08T17:14:57.027Z,6.03
2023-05-08T17:17:24.622Z,4.57
2023-05-08T17:19:52.222Z,5.70
2023-05-08T17:22:20.748Z,5.20
2023-05-08T17:24:48.549Z,6.10
2023-05-08T17:27:16.211Z,6.27
2023-05-08T17:29:43.855Z,5.90
2023-05-08T17:32:11.752Z,6.40
2023-05-08T17:34:39.537Z,6.00
2023-05-08T17:37:07.152Z,5.90
2023-05-08T17:39:35.283Z,6.77
2023-05-08T17:42:02.934Z,6.50
2023-05-08T17:44:30.711Z,5.30
2023-05-08T17:46:58.356Z,5.67
2023-05-08T17:49:26.007Z,5.50
2023-05-08T17:51:53.622Z,5.67
2023-05-08T17:54:21.190Z,5.37
2023-05-08T17:56:48.899Z,5.67
2023-05-08T17:59:16.504Z,7.50
2023-05-08T18:01:44.256Z,6.60
2023-05-08T18:04:11.964Z,7.67
2023-05-08T18:06:39.822Z,7.67
2023-05-08T18:09:10.528Z,7.80
2023-05-08T18:11:39.479Z,7.73
2023-05-08T18:14:07.131Z,6.40
2023-05-08T18:16:34.927Z,7.43
2023-05-08T18:19:02.669Z,7.27
2023-05-08T18:21:31.693Z,8.70
2023-05-08T18:23:59.432Z,7.90
2023-05-08T18:26:27.000Z,7.50
2023-05-08T18:28:54.645Z,8.10
2023-05-08T18:31:22.331Z,8.67
2023-05-08T18:33:49.954Z,7.77
2023-05-08T18:36:17.681Z,12.53
2023-05-08T18:38:45.296Z,9.63
2023-05-08T18:41:12.918Z,9.00
2023-05-08T18:43:41.701Z,10.60
2023-05-08T18:46:14.352Z,8.63
2023-05-08T18:48:42.482Z,10.27
2023-05-08T18:51:11.095Z,10.00
2023-05-08T18:53:39.411Z,9.27
2023-05-08T18:56:07.735Z,7.93
2023-05-08T18:58:35.671Z,7.90
2023-05-08T19:01:03.771Z,10.10
2023-05-08T19:03:32.285Z,10.07
2023-05-08T19:06:00.498Z,10.47
2023-05-08T19:08:28.279Z,11.47
2023-05-08T19:10:56.162Z,12.10
2023-05-08T19:13:24.324Z,12.10
2023-05-08T19:15:54.285Z,13.13
2023-05-08T19:18:22.568Z,16.63
2023-05-08T19:20:50.422Z,16.30
2023-05-08T19:23:18.488Z,17.27
2023-05-08T19:25:46.347Z,19.80
2023-05-08T19:28:15.586Z,16.13
2023-05-08T19:30:43.727Z,12.97
2023-05-08T19:33:11.830Z,10.90
2023-05-08T19:35:39.614Z,10.40
2023-05-08T19:38:07.341Z,14.57
2023-05-08T19:40:48.110Z,12.37
2023-05-08T19:43:23.070Z,10.00
2023-05-08T19:45:50.854Z,9.37
2023-05-08T19:48:20.157Z,9.33
2023-05-08T19:50:48.338Z,9.57
2023-05-08T19:53:16.319Z,10.10
2023-05-08T19:55:43.964Z,9.00
2023-05-08T19:58:11.835Z,8.70
2023-05-08T20:00:39.467Z,9.33
2023-05-08T20:03:07.459Z,8.73
2023-05-08T20:05:35.168Z,8.57
2023-05-08T20:08:02.929Z,9.73
2023-05-08T20:10:30.702Z,10.13
2023-05-08T20:12:58.822Z,9.43
2023-05-08T20:15:26.654Z,10.20
2023-05-08T20:17:55.747Z,11.80
2023-05-08T20:20:23.899Z,12.80
2023-05-08T20:22:51.681Z,8.90
2023-05-08T20:25:20.308Z,8.90
2023-05-08T20:27:48.295Z,7.97
2023-05-08T20:30:16.302Z,7.60
2023-05-08T20:32:44.132Z,9.03
2023-05-08T20:35:12.535Z,7.93
2023-05-08T20:37:49.397Z,8.90
2023-05-08T20:40:17.533Z,8.17
2023-05-08T20:42:45.238Z,8.13
2023-05-08T20:45:13.259Z,10.00
2023-05-08T20:47:41.525Z,8.57
2023-05-08T20:50:10.032Z,10.37
2023-05-08T20:52:39.398Z,11.57
2023-05-08T20:55:09.900Z,9.00
2023-05-08T20:57:41.015Z,10.03
2023-05-08T21:00:10.079Z,8.53
2023-05-08T21:02:42.722Z,8.60
2023-05-08T21:05:11.688Z,8.10
2023-05-08T21:07:42.197Z,8.90
2023-05-08T21:10:10.933Z,10.30
2023-05-08T21:12:39.061Z,9.87
2023-05-08T21:15:08.656Z,8.13
2023-05-08T21:17:37.075Z,8.80
2023-05-08T21:20:05.940Z,7.93
2023-05-08T21:22:34.769Z,8.10
2023-05-08T21:25:16.570Z,9.33
2023-05-08T21:27:47.798Z,8.60
2023-05-08T21:30:16.608Z,8.83
2023-05-08T21:32:48.020Z,11.83
2023-05-08T21:35:16.817Z,10.83
2023-05-08T21:37:45.072Z,11.17
2023-05-08T21:40:13.454Z,9.47
2023-05-08T21:42:41.290Z,9.33
2023-05-08T21:45:10.348Z,9.50
2023-05-08T21:47:38.135Z,9.83
2023-05-08T21:50:07.493Z,10.07
2023-05-08T21:52:35.769Z,9.70
2023-05-08T21:55:08.848Z,10.50
2023-05-08T21:57:36.773Z,10.83
2023-05-08T22:00:10.048Z,12.40
2023-05-08T22:02:47.719Z,12.50
2023-05-08T22:05:16.192Z,10.50
2023-05-08T22:07:44.350Z,12.10
2023-05-08T22:10:13.954Z,10.60
2023-05-08T22:12:42.088Z,12.70
2023-05-08T22:15:25.477Z,12.47
2023-05-08T22:17:57.275Z,13.17
2023-05-08T22:20:25.795Z,12.17
2023-05-08T22:22:53.654Z,14.00
2023-05-08T22:25:22.162Z,10.97
2023-05-08T22:27:50.050Z,11.83
2023-05-08T22:30:19.426Z,11.17
2023-05-08T22:32:58.384Z,11.80
2023-05-08T22:35:28.109Z,10.93
2023-05-08T22:38:01.176Z,11.47
2023-05-08T22:40:30.127Z,10.57
2023-05-08T22:42:58.991Z,11.30
2023-05-08T22:45:29.924Z,10.47
2023-05-08T22:47:58.443Z,10.20
2023-05-08T22:50:26.442Z,11.43
2023-05-08T22:52:54.578Z,11.13
2023-05-08T22:55:22.534Z,11.50
2023-05-08T22:57:51.982Z,11.43
2023-05-08T23:00:22.719Z,11.60
2023-05-08T23:02:52.619Z,10.97
2023-05-08T23:05:23.353Z,10.53
2023-05-08T23:07:51.584Z,12.53
2023-05-08T23:10:19.928Z,12.77
2023-05-08T23:12:48.075Z,10.03
2023-05-08T23:15:19.294Z,12.13
2023-05-08T23:17:48.415Z,13.90
2023-05-08T23:20:16.499Z,11.37
2023-05-08T23:22:44.494Z,14.33
2023-05-08T23:25:17.897Z,12.20
2023-05-08T23:27:46.174Z,10.57
2023-05-08T23:30:16.966Z,12.10
2023-05-08T23:32:46.157Z,11.27
2023-05-08T23:35:14.755Z,15.60
2023-05-08T23:37:42.839Z,12.10
2023-05-08T23:40:11.951Z,16.37
2023-05-08T23:42:40.171Z,12.00
2023-05-08T23:45:09.700Z,14.17
2023-05-08T23:47:37.489Z,12.03
2023-05-08T23:50:06.866Z,13.10
2023-05-08T23:52:35.449Z,13.17
2023-05-08T23:55:04.036Z,11.10
2023-05-08T23:57:32.091Z,15.00
